Time;durP1;ratioP1;P1;durP2;ratioP2;P2;SDS_P1;SDS_P2;PMS_P1;PMS_P2;Temp;Humidity;BMP_temperature;BMP_pressure;BME280_temperature;BME280_humidity;BME280_pressure;Samples;Min_cycle;Max_cycle;Signal;HPM_P1;HPM_P2
2021/05/05 00:00:27;;;;;;;9.05;6.20;;;;;;;7.97;58.69;99459.89;1782429;79;21444;-59
2021/05/05 00:02:55;;;;;;;10.60;6.10;;;;;;;7.97;58.69;99459.89;1782766;80;20942;-59
2021/05/05 00:09:10;;;;;;;12.03;6.87;;;;;;;8.00;58.42;99455.27;1748631;79;22803;-59
2021/05/05 00:11:40;;;;;;;9.73;6.62;;;;;;;7.94;58.43;99448.83;1695783;82;21557;-59
2021/05/05 00:14:11;;;;;;;9.55;6.72;;;;;;;7.94;58.40;99449.30;1679684;84;22323;-49
2021/05/05 00:16:47;;;;;;;11.20;6.58;;;;;;;7.99;58.41;99447.25;1834433;76;22672;-48
2021/05/05 00:19:15;;;;;;;8.83;5.97;;;;;;;7.94;58.29;99446.62;1797912;77;21048;-48
2021/05/05 00:21:43;;;;;;;11.30;6.65;;;;;;;7.92;58.26;99446.66;1799808;77;22473;-47
2021/05/05 00:24:12;;;;;;;11.38;6.42;;;;;;;7.91;58.16;99445.40;1809568;77;21012;-49
2021/05/05 00:26:40;;;;;;;15.45;7.12;;;;;;;7.90;58.17;99445.00;1796507;78;20992;-49
2021/05/05 00:29:08;;;;;;;11.40;7.40;;;;;;;7.88;58.10;99440.58;1765312;79;20993;-49
2021/05/05 00:31:37;;;;;;;9.78;6.90;;;;;;;7.87;58.12;99442.83;1764359;78;21642;-50
2021/05/05 00:34:05;;;;;;;9.85;6.00;;;;;;;7.88;58.11;99445.05;1764078;79;21375;-48
2021/05/05 00:36:33;;;;;;;10.20;5.75;;;;;;;7.86;58.08;99437.06;1764644;79;21408;-49
2021/05/05 00:39:02;;;;;;;11.33;6.03;;;;;;;7.86;57.93;99437.06;1769110;79;21561;-49
2021/05/05 00:41:30;;;;;;;10.00;6.20;;;;;;;7.85;57.80;99436.67;1767969;78;21165;-49
2021/05/05 00:43:58;;;;;;;8.43;5.22;;;;;;;7.85;57.57;99443.39;1762639;79;21547;-49
2021/05/05 00:46:26;;;;;;;13.88;6.58;;;;;;;7.83;57.46;99437.23;1762351;78;22047;-49
2021/05/05 00:48:54;;;;;;;9.45;5.45;;;;;;;7.83;57.37;99434.54;1764208;79;21137;-49
2021/05/05 00:51:22;;;;;;;9.05;5.55;;;;;;;7.81;57.32;99428.34;1763054;79;21152;-48
2021/05/05 00:53:51;;;;;;;10.18;5.83;;;;;;;7.83;57.20;99422.45;1764538;78;21149;-48
2021/05/05 00:56:18;;;;;;;8.78;5.70;;;;;;;7.84;57.04;99427.36;1766242;79;21003;-48
2021/05/05 00:58:46;;;;;;;7.30;5.67;;;;;;;7.83;56.88;99426.48;1764875;78;21370;-48
2021/05/05 01:01:14;;;;;;;7.15;5.60;;;;;;;7.84;56.78;99426.88;1765165;79;21518;-48
2021/05/05 01:03:43;;;;;;;7.17;5.47;;;;;;;7.84;56.74;99424.67;1765128;78;21046;-49
2021/05/05 01:06:11;;;;;;;8.80;5.35;;;;;;;7.82;56.66;99424.72;1734767;80;21144;-48
2021/05/05 01:08:39;;;;;;;10.60;5.70;;;;;;;7.81;56.68;99431.03;1764451;78;21019;-48
2021/05/05 01:11:06;;;;;;;8.85;5.65;;;;;;;7.81;56.75;99422.11;1762118;78;22011;-48
2021/05/05 01:13:36;;;;;;;7.47;5.70;;;;;;;7.77;56.77;99416.47;1767720;78;21032;-48
2021/05/05 01:16:04;;;;;;;10.18;5.67;;;;;;;7.75;56.82;99420.56;1764433;78;21011;-47
2021/05/05 01:18:33;;;;;;;10.28;5.50;;;;;;;7.73;56.87;99414.41;1762640;79;20989;-48
2021/05/05 01:21:01;;;;;;;7.03;5.35;;;;;;;7.72;56.86;99409.95;1763921;78;21523;-48
2021/05/05 01:23:29;;;;;;;10.15;5.47;;;;;;;7.72;56.87;99418.00;1764741;79;21206;-49
2021/05/05 01:25:57;;;;;;;9.15;5.90;;;;;;;7.72;56.93;99412.64;1767832;79;21715;-49
2021/05/05 01:28:25;;;;;;;8.35;5.35;;;;;;;7.70;56.97;99415.00;1766768;79;21148;-48
2021/05/05 01:30:55;;;;;;;11.12;6.12;;;;;;;7.68;56.97;99420.45;1764640;79;21578;-46
2021/05/05 01:33:23;;;;;;;12.33;6.20;;;;;;;7.65;57.08;99409.83;1768700;79;21137;-47
2021/05/05 01:35:51;;;;;;;10.30;5.92;;;;;;;7.63;57.06;99406.36;1762998;78;21435;-50
2021/05/05 01:38:19;;;;;;;8.45;5.50;;;;;;;7.61;57.12;99406.87;1765138;78;21006;-50
2021/05/05 01:40:49;;;;;;;8.68;5.22;;;;;;;7.61;57.14;99404.19;1767748;78;21184;-50
2021/05/05 01:43:16;;;;;;;9.18;5.58;;;;;;;7.59;57.13;99403.39;1765666;79;21189;-50
2021/05/05 01:45:44;;;;;;;9.45;5.80;;;;;;;7.58;57.18;99402.53;1761247;79;21536;-51
2021/05/05 01:48:12;;;;;;;9.00;6.50;;;;;;;7.58;57.15;99398.98;1735380;80;21427;-50
2021/05/05 01:50:40;;;;;;;10.05;5.58;;;;;;;7.59;57.24;99395.34;1764012;79;21193;-49
2021/05/05 01:53:09;;;;;;;12.80;6.00;;;;;;;7.58;57.23;99398.98;1765375;78;21161;-48
2021/05/05 01:55:38;;;;;;;9.98;5.25;;;;;;;7.57;57.18;99391.87;1761217;79;21198;-47
2021/05/05 01:58:09;;;;;;;9.60;5.97;;;;;;;7.56;57.16;99386.98;1770319;78;21022;-48
2021/05/05 02:00:38;;;;;;;8.00;5.20;;;;;;;7.59;57.15;99389.98;1760956;78;21380;-48
2021/05/05 02:03:07;;;;;;;11.18;5.87;;;;;;;7.58;57.15;99392.27;1761428;80;21400;-48
2021/05/05 02:05:47;;;;;;;7.55;5.65;;;;;;;7.65;57.12;99388.84;1845737;74;22658;-48
2021/05/05 02:08:25;;;;;;;11.30;5.78;;;;;;;7.65;57.11;99380.31;1814352;76;22752;-48
2021/05/05 02:10:53;;;;;;;13.75;7.00;;;;;;;7.60;57.14;99391.72;1778946;77;21580;-48
2021/05/05 02:13:22;;;;;;;8.98;5.95;;;;;;;7.60;57.23;99382.33;1761962;79;21311;-48
2021/05/05 02:15:52;;;;;;;9.10;5.83;;;;;;;7.62;57.19;99389.86;1756653;79;21569;-47
2021/05/05 02:18:23;;;;;;;9.43;5.80;;;;;;;7.62;57.24;99387.17;1726086;79;21160;-48
2021/05/05 02:20:52;;;;;;;8.60;5.85;;;;;;;7.63;57.26;99379.52;1758589;78;21538;-47
2021/05/05 02:23:20;;;;;;;7.55;5.08;;;;;;;7.62;57.31;99381.81;1757347;79;20997;-49
2021/05/05 02:25:50;;;;;;;7.40;5.20;;;;;;;7.62;57.39;99379.12;1763360;79;22311;-48
2021/05/05 02:28:18;;;;;;;10.98;6.30;;;;;;;7.62;57.44;99381.81;1759998;78;20997;-48
2021/05/05 02:30:50;;;;;;;8.28;5.75;;;;;;;7.62;57.42;99379.12;1754369;78;21005;-49
2021/05/05 02:33:19;;;;;;;7.90;5.40;;;;;;;7.64;57.41;99369.18;1759501;78;21100;-48
2021/05/05 02:35:49;;;;;;;8.63;6.05;;;;;;;7.67;57.36;99368.16;1755281;79;21024;-48
2021/05/05 02:38:17;;;;;;;10.30;5.47;;;;;;;7.68;57.30;99373.48;1726957;80;21461;-48
2021/05/05 02:40:46;;;;;;;7.72;5.08;;;;;;;7.73;57.29;99374.63;1756286;79;21037;-48
2021/05/05 02:43:14;;;;;;;9.10;5.72;;;;;;;7.75;57.19;99370.91;1758760;79;21116;-47
2021/05/05 02:45:42;;;;;;;8.60;6.12;;;;;;;7.79;57.18;99367.63;1763020;79;21128;-47
2021/05/05 02:48:11;;;;;;;9.03;5.33;;;;;;;7.82;57.07;99361.63;1729135;78;21024;-49
2021/05/05 02:50:39;;;;;;;9.13;4.85;;;;;;;7.85;56.91;99360.16;1731114;80;21364;-48
2021/05/05 02:53:08;;;;;;;8.53;5.42;;;;;;;7.91;56.75;99366.20;1756712;79;21001;-48
2021/05/05 02:55:36;;;;;;;8.95;5.55;;;;;;;7.96;56.75;99366.86;1758817;79;21135;-48
2021/05/05 02:58:04;;;;;;;11.45;5.62;;;;;;;7.99;56.69;99362.67;1756018;79;21088;-48
2021/05/05 03:00:32;;;;;;;7.85;5.62;;;;;;;8.01;56.63;99360.33;1755701;79;21126;-49
2021/05/05 03:03:00;;;;;;;5.87;5.15;;;;;;;8.03;56.70;99358.44;1756993;78;21394;-49
2021/05/05 03:05:28;;;;;;;11.60;5.85;;;;;;;8.05;56.67;99355.70;1758386;79;21913;-49
2021/05/05 03:07:56;;;;;;;10.18;5.37;;;;;;;8.06;56.71;99350.73;1756935;79;21115;-49
2021/05/05 03:10:23;;;;;;;13.98;6.62;;;;;;;8.08;56.78;99361.78;1761246;79;21112;-49
2021/05/05 03:12:53;;;;;;;8.85;5.72;;;;;;;8.08;56.80;99352.38;1757119;78;21514;-48
2021/05/05 03:15:20;;;;;;;9.83;5.97;;;;;;;8.11;56.93;99355.41;1758958;78;21208;-50
2021/05/05 03:17:50;;;;;;;8.85;5.65;;;;;;;8.11;57.02;99347.36;1759774;79;21582;-50
2021/05/05 03:20:19;;;;;;;11.38;6.90;;;;;;;8.14;57.08;99349.88;1759391;78;21096;-49
2021/05/05 03:22:46;;;;;;;8.68;5.90;;;;;;;8.15;57.09;99348.97;1756770;78;21116;-51
2021/05/05 03:25:14;;;;;;;8.33;5.22;;;;;;;8.18;57.20;99351.48;1757723;79;21135;-52
2021/05/05 03:27:42;;;;;;;8.20;5.97;;;;;;;8.20;57.24;99349.59;1757727;79;21660;-49
2021/05/05 03:30:10;;;;;;;8.88;6.00;;;;;;;8.22;57.27;99342.34;1763417;78;21056;-48
2021/05/05 03:32:39;;;;;;;9.63;5.67;;;;;;;8.25;57.34;99342.19;1755145;79;21140;-48
2021/05/05 03:35:08;;;;;;;8.43;6.20;;;;;;;8.28;57.41;99342.05;1754211;79;21136;-49
2021/05/05 03:37:36;;;;;;;10.38;6.95;;;;;;;8.32;57.47;99344.13;1754502;79;21116;-50
2021/05/05 03:40:05;;;;;;;9.18;5.80;;;;;;;8.35;57.55;99351.55;1755552;79;21382;-49
2021/05/05 03:42:33;;;;;;;9.00;5.42;;;;;;;8.39;57.57;99339.76;1755839;78;21005;-49
2021/05/05 03:45:02;;;;;;;8.25;5.45;;;;;;;8.45;57.53;99340.41;1764733;79;21137;-48
2021/05/05 03:47:30;;;;;;;11.97;6.62;;;;;;;8.49;57.51;99333.95;1755485;79;21122;-50
2021/05/05 03:50:00;;;;;;;9.15;6.17;;;;;;;8.53;57.47;99336.42;1756985;79;21017;-48
2021/05/05 03:52:28;;;;;;;7.33;5.67;;;;;;;8.59;57.48;99339.28;1763835;79;22293;-49
2021/05/05 03:54:56;;;;;;;10.40;6.72;;;;;;;8.65;57.43;99337.63;1755351;79;21041;-49
2021/05/05 03:57:24;;;;;;;7.42;5.97;;;;;;;8.71;57.33;99336.45;1762976;78;21131;-49
2021/05/05 03:59:52;;;;;;;9.48;5.60;;;;;;;8.76;57.20;99337.97;1766468;78;21124;-50
2021/05/05 04:02:20;;;;;;;9.25;6.03;;;;;;;8.84;57.07;99343.85;1758237;79;21092;-49
2021/05/05 04:04:48;;;;;;;12.00;6.08;;;;;;;8.92;56.95;99342.98;1755826;79;22264;-49
2021/05/05 04:07:16;;;;;;;7.50;5.78;;;;;;;9.06;56.77;99342.77;1759433;78;21012;-49
2021/05/05 04:09:45;;;;;;;9.05;5.60;;;;;;;9.37;56.07;99342.91;1781505;78;21683;-48
2021/05/05 04:12:14;;;;;;;8.25;5.33;;;;;;;9.76;55.11;99339.09;1751821;79;21143;-49
2021/05/05 04:14:42;;;;;;;7.22;5.58;;;;;;;10.13;54.21;99329.02;1751513;79;21140;-49
2021/05/05 04:17:28;;;;;;;7.85;5.30;;;;;;;10.47;53.19;99336.97;1750705;80;21260;-48
2021/05/05 04:20:13;;;;;;;8.83;6.00;;;;;;;10.79;52.25;99331.57;1764461;79;20973;-48
2021/05/05 04:22:59;;;;;;;11.60;5.67;;;;;;;10.97;51.93;99335.02;1755730;79;21595;-49
2021/05/05 04:25:46;;;;;;;8.35;5.53;;;;;;;10.91;51.88;99325.45;1708116;82;21141;-51
2021/05/05 04:28:14;;;;;;;7.35;5.47;;;;;;;10.80;52.07;99330.61;1753751;79;21165;-50
2021/05/05 04:30:44;;;;;;;9.88;5.08;;;;;;;10.72;52.29;99332.89;1706011;82;21025;-50
2021/05/05 04:33:12;;;;;;;9.55;5.53;;;;;;;10.65;52.56;99328.78;1756873;79;21065;-55
2021/05/05 04:35:40;;;;;;;11.05;5.50;;;;;;;10.62;52.78;99326.28;1712173;81;21037;-49
2021/05/05 04:38:07;;;;;;;10.32;5.28;;;;;;;10.55;52.97;99330.30;1760318;79;21025;-49
2021/05/05 04:40:35;;;;;;;9.65;5.03;;;;;;;10.51;53.21;99320.16;1714587;82;21124;-53
2021/05/05 04:43:04;;;;;;;7.53;5.40;;;;;;;10.52;53.41;99316.98;1751910;80;21146;-55
2021/05/05 04:45:34;;;;;;;8.60;5.33;;;;;;;10.51;53.58;99310.72;1702066;81;21180;-49
2021/05/05 04:48:02;;;;;;;6.30;4.92;;;;;;;10.55;53.54;99314.98;1753264;79;21010;-49
2021/05/05 04:50:30;;;;;;;12.93;5.12;;;;;;;10.61;53.49;99313.77;1703966;82;21235;-49
2021/05/05 04:52:58;;;;;;;8.28;5.17;;;;;;;10.65;53.56;99308.11;1753003;79;20989;-49
2021/05/05 04:55:27;;;;;;;7.90;5.05;;;;;;;10.70;53.50;99301.94;1707245;81;22216;-50
2021/05/05 04:57:55;;;;;;;6.40;4.72;;;;;;;10.78;53.30;99301.52;1754475;79;20986;-49
2021/05/05 05:00:24;;;;;;;10.38;5.08;;;;;;;10.82;53.26;99297.69;1706833;81;21636;-50
2021/05/05 05:02:52;;;;;;;7.80;4.90;;;;;;;10.87;53.23;99305.03;1759430;79;21036;-50
2021/05/05 05:05:22;;;;;;;11.15;5.65;;;;;;;10.93;53.33;99307.37;1704578;81;21132;-49
2021/05/05 05:07:54;;;;;;;16.12;5.75;;;;;;;11.00;53.34;99307.86;1752286;79;21143;-49
2021/05/05 05:10:21;;;;;;;8.48;4.72;;;;;;;11.07;53.54;99302.97;1753904;79;21589;-50
2021/05/05 05:12:49;;;;;;;11.08;5.92;;;;;;;11.17;53.59;99294.71;1755690;79;21128;-49
2021/05/05 05:15:17;;;;;;;6.90;5.10;;;;;;;11.25;53.39;99283.86;1756743;79;21096;-49
2021/05/05 05:17:45;;;;;;;8.55;4.58;;;;;;;11.35;53.31;99292.27;1756223;79;20986;-49
2021/05/05 05:20:13;;;;;;;8.95;4.67;;;;;;;11.40;53.34;99296.91;1760469;79;21362;-50
2021/05/05 05:22:41;;;;;;;6.53;4.78;;;;;;;11.51;53.37;99295.77;1762389;79;21144;-50
2021/05/05 05:25:11;;;;;;;10.38;4.87;;;;;;;11.63;53.38;99286.03;1755550;79;21064;-51
2021/05/05 05:27:39;;;;;;;8.48;4.33;;;;;;;11.77;53.22;99283.80;1759476;79;21017;-49
2021/05/05 05:30:08;;;;;;;6.83;4.80;;;;;;;11.88;52.91;99280.46;1756478;80;21529;-50
2021/05/05 05:32:36;;;;;;;8.75;4.62;;;;;;;11.98;52.63;99280.27;1759292;79;21364;-50
2021/05/05 05:35:05;;;;;;;6.55;3.90;;;;;;;12.09;52.44;99276.87;1757880;79;21047;-50
2021/05/05 05:37:35;;;;;;;6.37;4.17;;;;;;;12.18;52.45;99273.59;1759628;79;21542;-50
2021/05/05 05:40:05;;;;;;;5.83;4.35;;;;;;;12.28;52.11;99274.73;1760695;79;21140;-49
2021/05/05 05:42:33;;;;;;;4.80;4.28;;;;;;;12.38;51.91;99272.31;1759551;79;21157;-51
2021/05/05 05:45:01;;;;;;;8.30;4.03;;;;;;;12.47;51.78;99275.28;1759032;79;21407;-51
2021/05/05 05:47:29;;;;;;;6.67;3.92;;;;;;;12.60;51.66;99265.86;1758447;79;21223;-50
2021/05/05 05:49:57;;;;;;;5.35;4.00;;;;;;;12.73;51.53;99257.78;1760376;79;21648;-50
2021/05/05 05:52:25;;;;;;;5.17;4.25;;;;;;;12.89;51.15;99253.11;1761647;79;20957;-51
2021/05/05 05:54:54;;;;;;;7.33;4.08;;;;;;;13.02;50.89;99253.13;1757737;79;21581;-51
2021/05/05 05:57:22;;;;;;;7.72;4.62;;;;;;;13.14;50.41;99254.12;1756660;79;22346;-51
2021/05/05 05:59:50;;;;;;;6.12;3.92;;;;;;;13.25;50.36;99248.86;1758545;79;21585;-52
2021/05/05 06:02:18;;;;;;;6.30;3.72;;;;;;;13.38;50.02;99247.05;1763187;79;21131;-51
2021/05/05 06:04:48;;;;;;;4.92;3.47;;;;;;;13.50;49.74;99246.17;1759981;80;20997;-52
2021/05/05 06:07:16;;;;;;;6.70;4.15;;;;;;;13.60;49.53;99245.05;1755354;79;20997;-51
2021/05/05 06:09:45;;;;;;;7.22;3.77;;;;;;;13.69;49.37;99238.09;1750973;79;21559;-50
2021/05/05 06:12:13;;;;;;;5.70;3.40;;;;;;;13.76;49.41;99234.84;1751480;79;21013;-49
2021/05/05 06:14:41;;;;;;;5.05;3.50;;;;;;;13.85;49.47;99237.40;1750646;79;21396;-51
2021/05/05 06:17:09;;;;;;;6.37;4.80;;;;;;;13.96;49.35;99225.28;1750761;79;21561;-50
2021/05/05 06:19:37;;;;;;;4.90;3.72;;;;;;;14.05;49.18;99237.28;1747829;80;21113;-50
2021/05/05 06:22:05;;;;;;;6.62;3.25;;;;;;;14.14;49.26;99238.84;1756913;80;21193;-51
2021/05/05 06:24:34;;;;;;;10.15;4.25;;;;;;;14.24;49.25;99232.27;1751194;79;21203;-50
2021/05/05 06:27:05;;;;;;;15.25;4.42;;;;;;;14.35;49.30;99228.75;1753096;79;21144;-51
2021/05/05 06:29:32;;;;;;;5.60;3.30;;;;;;;14.47;49.40;99233.30;1761828;79;21559;-51
2021/05/05 06:32:00;;;;;;;6.80;2.80;;;;;;;14.56;49.51;99227.19;1752926;79;21112;-49
2021/05/05 06:34:31;;;;;;;8.85;3.05;;;;;;;14.70;49.63;99227.98;1752605;79;22259;-50
2021/05/05 06:37:00;;;;;;;6.42;3.12;;;;;;;14.86;49.44;99224.01;1751126;79;21154;-51
2021/05/05 06:39:28;;;;;;;5.22;2.80;;;;;;;15.01;49.22;99227.38;1752543;79;21175;-51
2021/05/05 06:41:55;;;;;;;10.00;7.08;;;;;;;15.13;49.06;99232.38;1752323;79;21129;-50
2021/05/05 06:44:23;;;;;;;5.03;3.10;;;;;;;15.22;49.04;99229.42;1752765;80;21507;-51
2021/05/05 06:46:54;;;;;;;5.97;2.62;;;;;;;15.27;49.25;99229.92;1749360;79;21362;-51
2021/05/05 06:49:25;;;;;;;2.70;2.20;;;;;;;15.33;49.35;99226.73;1751501;79;21037;-49
2021/05/05 06:51:52;;;;;;;;;;;;;;;15.39;49.79;99228.50;1754289;79;21013;-49
2021/05/05 06:54:20;;;;;;;10.03;2.67;;;;;;;15.49;49.65;99219.09;1754963;79;20701;-51
2021/05/05 06:56:48;;;;;;;5.97;2.62;;;;;;;15.57;49.56;99219.38;1752962;79;21593;-52
2021/05/05 06:59:17;;;;;;;4.03;2.37;;;;;;;15.59;49.78;99216.52;1758334;79;21453;-50
2021/05/05 07:01:44;;;;;;;7.55;2.52;;;;;;;15.61;50.05;99210.00;1753929;79;21983;-51
2021/05/05 07:04:12;;;;;;;9.10;2.87;;;;;;;15.69;50.56;99210.27;1751242;79;21136;-50
2021/05/05 07:06:40;;;;;;;9.78;2.90;;;;;;;15.74;50.58;99206.31;1750686;79;21120;-50
2021/05/05 07:09:10;;;;;;;4.67;2.25;;;;;;;15.76;51.13;99202.47;1759856;79;21017;-51
2021/05/05 07:11:40;;;;;;;9.93;2.72;;;;;;;15.79;51.59;99204.09;1760285;79;21013;-51
2021/05/05 07:14:08;;;;;;;8.75;3.27;;;;;;;15.82;51.74;99210.63;1756889;79;21553;-52
2021/05/05 07:16:36;;;;;;;5.33;2.17;;;;;;;15.85;51.95;99203.59;1764799;79;21155;-50
2021/05/05 07:19:05;;;;;;;5.65;2.75;;;;;;;15.89;51.82;99207.30;1756118;79;21096;-51
2021/05/05 07:21:32;;;;;;;13.05;2.77;;;;;;;15.95;51.72;99211.38;1760287;79;21484;-50
2021/05/05 07:24:02;;;;;;;5.80;2.55;;;;;;;16.03;52.26;99207.53;1759932;79;21240;-52
2021/05/05 07:26:30;;;;;;;6.20;2.50;;;;;;;16.16;52.44;99200.11;1759590;79;21147;-51
2021/05/05 07:28:58;;;;;;;8.48;3.17;;;;;;;16.27;52.36;99199.72;1758404;79;21116;-50
2021/05/05 07:31:27;;;;;;;3.83;2.92;;;;;;;16.34;52.55;99194.13;1760880;79;21123;-50
2021/05/05 07:33:56;;;;;;;4.22;2.67;;;;;;;16.39;52.45;99189.17;1755179;79;21111;-52
2021/05/05 07:36:28;;;;;;;4.92;2.60;;;;;;;16.41;52.54;99185.84;1757132;79;22267;-50
2021/05/05 07:49:14;;;;;;;5.28;2.65;;;;;;;16.64;52.48;99188.86;1757078;79;21807;-52
2021/05/05 07:51:42;;;;;;;9.30;2.33;;;;;;;16.69;52.46;99183.89;1758325;79;21148;-50
2021/05/05 07:54:10;;;;;;;4.92;3.10;;;;;;;16.75;52.50;99188.84;1757956;79;21565;-50
2021/05/05 07:56:39;;;;;;;6.78;2.65;;;;;;;16.83;52.32;99181.87;1757250;79;21530;-50
2021/05/05 07:59:07;;;;;;;7.20;2.60;;;;;;;16.85;52.29;99182.62;1757445;79;21083;-51
2021/05/05 08:03:31;;;;;;;10.40;3.67;;;;;;;17.01;52.43;99180.31;1813476;77;22852;-51
2021/05/05 08:06:00;;;;;;;4.53;2.90;;;;;;;17.04;52.33;99182.75;1784457;78;21534;-49
2021/05/05 08:08:29;;;;;;;4.67;2.87;;;;;;;17.10;51.80;99182.25;1765137;78;21360;-49
2021/05/05 08:10:58;;;;;;;7.17;3.37;;;;;;;17.14;51.86;99173.30;1765451;78;21011;-50
2021/05/05 08:13:27;;;;;;;5.72;3.20;;;;;;;17.16;51.82;99157.19;1768803;78;21014;-49
2021/05/05 08:15:55;;;;;;;5.55;2.80;;;;;;;17.17;51.59;99163.50;1762189;78;21019;-50
2021/05/05 08:18:24;;;;;;;4.22;2.55;;;;;;;17.10;51.83;99167.73;1761501;78;20999;-51
2021/05/05 08:20:52;;;;;;;6.92;3.40;;;;;;;17.02;52.05;99165.69;1762676;79;21397;-50
2021/05/05 08:23:20;;;;;;;8.43;3.12;;;;;;;16.98;52.34;99174.61;1760396;79;21003;-50
2021/05/05 08:25:48;;;;;;;6.08;3.17;;;;;;;17.01;52.34;99153.06;1765991;79;21208;-53
2021/05/05 08:28:17;;;;;;;6.42;3.08;;;;;;;17.03;52.00;99156.51;1760766;78;20995;-51
2021/05/05 08:30:46;;;;;;;4.12;3.02;;;;;;;17.00;51.88;99151.34;1760567;79;21563;-50
2021/05/05 08:33:15;;;;;;;5.40;3.20;;;;;;;16.98;52.06;99150.59;1761690;78;21603;-49
2021/05/05 08:35:43;;;;;;;8.43;5.00;;;;;;;17.00;51.79;99151.34;1761897;78;21169;-51
2021/05/05 08:38:12;;;;;;;6.87;3.40;;;;;;;17.03;51.57;99146.98;1761209;79;21113;-50
2021/05/05 08:40:40;;;;;;;7.67;2.98;;;;;;;17.09;51.31;99151.03;1762842;78;21496;-50
2021/05/05 08:43:08;;;;;;;4.78;3.08;;;;;;;17.11;51.09;99149.91;1762599;78;21137;-51
2021/05/05 08:53:36;;;;;;;7.62;3.30;;;;;;;17.37;50.13;99134.52;1796698;77;27938;-51
2021/05/05 08:56:04;;;;;;;11.05;3.17;;;;;;;17.33;50.07;99135.77;1792516;78;21558;-51
2021/05/05 08:58:33;;;;;;;6.20;2.72;;;;;;;17.37;50.14;99137.23;1788118;78;22253;-50
2021/05/05 09:01:02;;;;;;;6.00;3.05;;;;;;;17.40;49.71;99144.62;1791492;78;20997;-50
2021/05/05 09:03:35;;;;;;;7.65;4.17;;;;;;;17.34;49.66;99141.58;1788450;78;21558;-52
2021/05/05 09:06:05;;;;;;;6.15;4.50;;;;;;;17.25;49.38;99134.56;1799969;78;21132;-50
2021/05/05 09:08:33;;;;;;;6.40;3.35;;;;;;;17.20;49.51;99138.19;1797141;78;20947;-50
2021/05/05 09:11:07;;;;;;;6.03;3.40;;;;;;;17.23;49.28;99131.63;1793197;78;21195;-52
2021/05/05 09:13:56;;;;;;;5.50;2.92;;;;;;;17.31;48.73;99141.84;1788467;78;21072;-51
2021/05/05 09:16:32;;;;;;;4.55;2.98;;;;;;;17.41;48.18;99144.12;1750472;78;28042;-51
2021/05/05 09:19:09;;;;;;;5.65;2.95;;;;;;;17.43;47.54;99142.14;1750139;79;21001;-50
2021/05/05 09:21:45;;;;;;;6.70;3.08;;;;;;;17.48;46.98;99119.43;1751713;79;21369;-50
2021/05/05 09:24:29;;;;;;;8.63;3.37;;;;;;;17.47;47.00;99121.77;1749788;79;21353;-49
2021/05/05 09:27:04;;;;;;;4.28;2.65;;;;;;;17.42;46.45;99130.88;1758688;79;21055;-50
2021/05/05 09:29:48;;;;;;;6.30;2.62;;;;;;;17.42;46.48;99118.61;1754403;79;20973;-50
2021/05/05 09:32:19;;;;;;;7.22;2.70;;;;;;;17.46;46.75;99117.32;1754913;80;21124;-50
2021/05/05 09:35:04;;;;;;;4.22;2.45;;;;;;;17.53;45.97;99113.06;1749619;79;21446;-51
2021/05/05 09:37:32;;;;;;;6.58;2.52;;;;;;;17.55;45.88;99113.78;1748244;80;21582;-51
2021/05/05 09:40:05;;;;;;;4.72;2.95;;;;;;;17.56;46.28;99104.59;1752052;80;21124;-51
2021/05/05 09:42:34;;;;;;;13.48;6.00;;;;;;;17.62;46.38;99104.04;1753592;79;21988;-51
2021/05/05 09:45:08;;;;;;;5.72;4.22;;;;;;;17.68;46.25;99100.76;1751305;79;21514;-50
2021/05/05 09:47:58;;;;;;;11.00;3.37;;;;;;;17.74;46.42;99094.81;1746970;80;21357;-53
2021/05/05 09:50:37;;;;;;;3.62;2.72;;;;;;;17.75;46.07;99092.44;1751798;79;21038;-50
2021/05/05 09:56:09;;;;;;;6.12;3.08;;;;;;;17.78;45.75;99094.87;1799373;77;22797;-50
2021/05/05 09:58:44;;;;;;;6.40;3.15;;;;;;;17.78;45.57;99092.14;1752084;79;20950;-50
2021/05/05 10:01:15;;;;;;;5.47;2.75;;;;;;;17.84;45.68;99087.13;1752767;80;21360;-51
2021/05/05 10:03:49;;;;;;;7.93;3.33;;;;;;;17.89;45.79;99086.22;1746500;79;21017;-51
2021/05/05 10:09:13;;;;;;;7.03;3.58;;;;;;;17.97;45.60;99087.76;1842045;75;22790;-52
2021/05/05 10:11:46;;;;;;;8.10;3.17;;;;;;;17.95;45.60;99081.55;1825612;77;20958;-51
2021/05/05 10:14:17;;;;;;;9.98;4.22;;;;;;;17.95;45.50;99085.65;1828675;77;22780;-51
2021/05/05 10:16:49;;;;;;;4.37;3.22;;;;;;;17.98;45.12;99085.38;1828246;77;20978;-51
2021/05/05 10:19:26;;;;;;;7.78;3.35;;;;;;;18.06;44.76;99091.02;1746803;80;20990;-50
2021/05/05 10:22:03;;;;;;;9.40;3.80;;;;;;;18.14;44.87;99077.51;1747048;80;20978;-51
2021/05/05 10:24:32;;;;;;;9.00;3.20;;;;;;;18.20;44.52;99071.48;1749365;80;21355;-51
2021/05/05 10:27:00;;;;;;;3.85;3.33;;;;;;;18.25;44.42;99079.25;1748424;80;21201;-50
2021/05/05 10:29:32;;;;;;;4.17;3.45;;;;;;;18.30;43.74;99063.30;1734670;80;21013;-50
2021/05/05 10:39:21;;;;;;;6.60;3.87;;;;;;;18.43;42.26;99061.64;1748666;79;22459;-51
2021/05/05 10:42:18;;;;;;;4.50;2.85;;;;;;;18.40;42.42;99071.50;1707326;82;21028;-50
2021/05/05 10:44:55;;;;;;;4.83;3.00;;;;;;;18.41;42.35;99055.47;1693662;82;21372;-50
2021/05/05 10:47:31;;;;;;;5.53;2.50;;;;;;;18.47;41.75;99050.80;1706365;82;21030;-50
2021/05/05 10:50:06;;;;;;;3.77;2.45;;;;;;;18.57;41.42;99065.31;1695018;82;20998;-50
2021/05/05 10:52:52;;;;;;;3.05;2.05;;;;;;;18.63;40.06;99066.59;1700708;82;20966;-51
2021/05/05 10:55:33;;;;;;;6.53;2.50;;;;;;;18.60;39.75;99065.03;1702852;82;20978;-50
2021/05/05 10:58:12;;;;;;;4.20;2.25;;;;;;;18.58;39.52;99064.30;1711987;82;21610;-50
2021/05/05 11:00:44;;;;;;;5.08;2.17;;;;;;;18.61;39.49;99066.75;1702732;81;20967;-51
2021/05/05 11:03:12;;;;;;;6.40;2.58;;;;;;;18.73;37.51;99046.49;1704724;83;21057;-51
2021/05/05 11:05:41;;;;;;;7.33;2.30;;;;;;;18.86;36.65;99054.91;1698442;83;21104;-50
2021/05/05 11:08:09;;;;;;;7.72;2.40;;;;;;;18.95;36.95;99056.73;1696301;82;21104;-50
2021/05/05 11:10:45;;;;;;;7.85;2.30;;;;;;;19.01;36.85;99062.97;1704834;82;21391;-51
2021/05/05 11:13:24;;;;;;;7.80;1.87;;;;;;;19.08;36.32;99044.99;1701082;82;21053;-52
2021/05/05 11:15:56;;;;;;;4.10;1.82;;;;;;;19.11;35.98;99048.27;1705305;81;21411;-51
2021/05/05 11:18:39;;;;;;;3.25;2.02;;;;;;;19.13;36.19;99052.24;1707717;82;21001;-52
2021/05/05 11:21:09;;;;;;;13.32;3.40;;;;;;;19.13;35.66;99048.14;1698757;83;21009;-49
2021/05/05 11:23:43;;;;;;;11.83;3.83;;;;;;;19.16;35.43;99052.44;1706072;82;21330;-50
2021/05/05 11:26:22;;;;;;;12.47;4.12;;;;;;;19.19;35.75;99046.17;1700795;82;21115;-50
2021/05/05 11:28:57;;;;;;;4.47;2.42;;;;;;;19.24;36.49;99045.22;1703967;82;20998;-50
2021/05/05 11:31:48;;;;;;;5.17;2.20;;;;;;;19.29;36.06;99042.91;1695775;81;21121;-51
2021/05/05 11:34:27;;;;;;;8.50;2.25;;;;;;;19.35;35.35;99046.40;1704200;82;20986;-51
2021/05/05 11:37:05;;;;;;;4.95;1.92;;;;;;;19.42;34.71;99033.48;1702884;82;22197;-50
2021/05/05 11:39:37;;;;;;;5.35;2.20;;;;;;;19.48;34.80;99038.34;1701900;82;21160;-51
2021/05/05 11:42:13;;;;;;;3.42;1.95;;;;;;;19.47;34.86;99037.48;1700224;82;21124;-51
2021/05/05 11:44:56;;;;;;;5.03;2.20;;;;;;;19.46;35.07;99036.28;1704299;82;20978;-51
2021/05/05 11:47:37;;;;;;;4.58;2.00;;;;;;;19.49;32.98;99034.59;1771418;78;22841;-53
2021/05/05 11:50:10;;;;;;;5.97;2.10;;;;;;;19.44;32.46;99028.23;1748018;80;21583;-51
2021/05/05 11:52:52;;;;;;;3.60;1.80;;;;;;;19.47;32.48;99031.16;1805667;78;22697;-51
2021/05/05 11:55:22;;;;;;;6.50;1.98;;;;;;;19.43;32.82;99029.73;1799250;78;21038;-50
2021/05/05 11:57:52;;;;;;;2.22;1.95;;;;;;;19.48;33.08;99024.67;1751798;79;22269;-50
2021/05/05 12:00:37;;;;;;;4.55;1.87;;;;;;;19.54;32.43;99024.06;1749654;79;21111;-50
2021/05/05 12:03:09;;;;;;;3.25;1.80;;;;;;;19.59;31.97;99024.50;1747965;79;21006;-51
2021/05/05 12:05:43;;;;;;;4.85;1.95;;;;;;;19.63;31.90;99019.09;1748022;80;20993;-50
2021/05/05 12:08:22;;;;;;;2.83;1.80;;;;;;;19.68;31.59;99012.66;1750883;79;21728;-54
2021/05/05 12:11:01;;;;;;;4.40;2.22;;;;;;;19.67;31.65;99017.77;1748735;80;22125;-51
2021/05/05 12:13:33;;;;;;;4.67;1.85;;;;;;;19.65;32.26;99010.20;1746705;79;21029;-50
2021/05/05 12:16:14;;;;;;;5.42;2.22;;;;;;;19.71;32.59;99003.27;1746612;80;21719;-51
2021/05/05 12:18:47;;;;;;;4.97;2.40;;;;;;;19.78;32.49;99012.09;1749293;79;21445;-52
2021/05/05 12:21:24;;;;;;;8.75;2.10;;;;;;;19.87;31.90;99006.21;1745942;79;21537;-50
2021/05/05 12:23:55;;;;;;;11.10;1.87;;;;;;;19.92;30.19;99001.61;1756619;79;21349;-52
2021/05/05 12:26:31;;;;;;;4.15;1.67;;;;;;;19.91;30.02;99013.58;1751919;79;21144;-50